createdAt,value
2023-03-11T00:02:21.582Z,101184.88
2023-03-11T00:04:49.074Z,101172.50
2023-03-11T00:07:24.332Z,101197.94
2023-03-11T00:09:55.070Z,101189.22
2023-03-11T00:12:26.081Z,101181.34
2023-03-11T00:14:54.144Z,101197.00
2023-03-11T00:17:21.235Z,101169.03
2023-03-11T00:19:48.289Z,101176.94
2023-03-11T00:22:15.339Z,101182.22
2023-03-11T00:24:44.724Z,101180.47
2023-03-11T00:27:11.998Z,101176.94
2023-03-11T00:29:41.838Z,101170.84
2023-03-11T00:32:09.390Z,101141.88
2023-03-11T00:34:39.659Z,101163.03
2023-03-11T00:37:06.931Z,101163.88
2023-03-11T00:39:34.399Z,101151.63
2023-03-11T00:42:01.664Z,101117.41
2023-03-11T00:44:28.828Z,101131.47
2023-03-11T00:46:57.601Z,101135.81
2023-03-11T00:49:24.955Z,101126.19
2023-03-11T00:51:52.903Z,101117.38
2023-03-11T00:54:20.397Z,101112.13
2023-03-11T00:56:50.679Z,101124.44
2023-03-11T01:01:47.297Z,101096.41
2023-03-11T01:04:14.663Z,101086.78
2023-03-11T01:06:45.994Z,101095.53
2023-03-11T01:09:13.638Z,101094.59
2023-03-11T01:11:41.003Z,101101.69
2023-03-11T01:14:08.812Z,101091.19
2023-03-11T01:16:38.868Z,101088.56
2023-03-11T01:19:06.182Z,101050.00
2023-03-11T01:21:33.348Z,101045.56
2023-03-11T01:24:00.470Z,101088.56
2023-03-11T01:26:27.608Z,101085.06
2023-03-11T01:28:57.495Z,101067.56
2023-03-11T01:31:25.165Z,101054.38
2023-03-11T01:33:52.573Z,101067.53
2023-03-11T01:36:19.750Z,101050.81
2023-03-11T01:38:46.977Z,101027.19
2023-03-11T01:41:14.027Z,101014.09
2023-03-11T01:44:05.365Z,101042.97
2023-03-11T01:47:00.165Z,101019.28
2023-03-11T01:49:35.755Z,101019.34
2023-03-11T01:52:08.119Z,101028.09
2023-03-11T01:54:42.587Z,101008.81
2023-03-11T01:57:16.187Z,101036.81
2023-03-11T01:59:58.612Z,101035.03
2023-03-11T02:02:34.714Z,101009.69
2023-03-11T02:05:04.987Z,101000.09
2023-03-11T02:07:32.591Z,100999.16
2023-03-11T02:10:07.808Z,101009.69
2023-03-11T02:12:36.912Z,100997.47
2023-03-11T02:15:07.102Z,101007.09
2023-03-11T02:17:37.629Z,100981.66
2023-03-11T02:20:39.946Z,100983.44
2023-03-11T02:23:14.480Z,100972.09
2023-03-11T02:25:51.652Z,101013.22
2023-03-11T02:28:20.909Z,100978.19
2023-03-11T02:30:48.958Z,100997.47
2023-03-11T02:33:19.003Z,100973.81
2023-03-11T02:35:47.734Z,100989.63
2023-03-11T02:38:14.849Z,100977.28
2023-03-11T02:41:02.956Z,100972.06
2023-03-11T02:43:40.989Z,101000.13
2023-03-11T02:46:11.868Z,100970.31
2023-03-11T02:48:39.534Z,100965.97
2023-03-11T02:51:06.902Z,100944.03
2023-03-11T02:53:42.018Z,100967.72
2023-03-11T02:56:09.292Z,100971.16
2023-03-11T02:58:36.436Z,100946.66
2023-03-11T03:01:03.898Z,100974.66
2023-03-11T03:03:31.165Z,100947.50
2023-03-11T03:05:58.374Z,100950.19
2023-03-11T03:08:25.702Z,100943.19
2023-03-11T03:10:53.977Z,100963.34
2023-03-11T03:13:21.367Z,100967.72
2023-03-11T03:15:48.760Z,100957.19
2023-03-11T03:18:16.031Z,100958.94
2023-03-11T03:20:43.575Z,100977.34
2023-03-11T03:23:10.811Z,100948.41
2023-03-11T03:25:38.028Z,100939.69
2023-03-11T03:28:09.768Z,100979.97
2023-03-11T03:30:39.893Z,100959.84
2023-03-11T03:33:08.075Z,100953.72
2023-03-11T03:35:35.432Z,100980.88
2023-03-11T03:38:07.393Z,100951.09
2023-03-11T03:40:34.475Z,100954.59
2023-03-11T03:43:05.379Z,100958.06
2023-03-11T03:45:34.937Z,100918.66
2023-03-11T03:48:02.654Z,100949.31
2023-03-11T03:50:36.401Z,100970.34
2023-03-11T03:53:03.606Z,100955.47
2023-03-11T03:55:31.353Z,100963.34
2023-03-11T03:58:02.102Z,100947.63
2023-03-11T04:00:37.661Z,100976.47
2023-03-11T04:03:05.364Z,100956.34
2023-03-11T04:05:43.589Z,100955.47
2023-03-11T04:08:14.736Z,100980.00
2023-03-11T04:10:44.992Z,100954.59
2023-03-11T04:13:14.291Z,100959.84
2023-03-11T04:15:48.983Z,100957.22
2023-03-11T04:18:16.255Z,100938.84
2023-03-11T04:20:49.155Z,100964.22
2023-03-11T04:23:23.680Z,100946.75
2023-03-11T04:25:51.039Z,100969.50
2023-03-11T04:28:22.103Z,100973.88
2023-03-11T04:30:51.739Z,100966.00
2023-03-11T04:33:21.591Z,100959.84
2023-03-11T04:35:52.312Z,100975.63
2023-03-11T04:38:20.753Z,100965.13
2023-03-11T04:40:48.880Z,100975.63
2023-03-11T04:43:16.766Z,100955.47
2023-03-11T04:45:45.327Z,100966.00
2023-03-11T04:48:13.312Z,100973.88
2023-03-11T04:50:41.683Z,100987.84
2023-03-11T04:53:11.521Z,100980.84
2023-03-11T04:55:41.922Z,100997.50
2023-03-11T04:58:09.339Z,100979.13
2023-03-11T05:00:38.974Z,100999.25
2023-03-11T05:03:12.101Z,100994.00
2023-03-11T05:05:39.933Z,100973.00
2023-03-11T05:08:08.564Z,101010.63
2023-03-11T05:10:36.920Z,100975.63
2023-03-11T05:13:06.573Z,100973.88
2023-03-11T05:15:37.913Z,100989.63
2023-03-11T05:18:06.866Z,100992.25
2023-03-11T05:20:37.687Z,100998.38
2023-03-11T05:23:05.711Z,101008.88
2023-03-11T05:25:35.757Z,100976.50
2023-03-11T05:28:03.737Z,100973.88
2023-03-11T05:30:32.821Z,100989.63
2023-03-11T05:33:00.297Z,100986.13
2023-03-11T05:35:30.866Z,100960.72
2023-03-11T05:37:58.184Z,100953.75
2023-03-11T05:40:28.649Z,100973.00
2023-03-11T05:42:56.129Z,100963.34
2023-03-11T05:45:25.753Z,100963.34
2023-03-11T05:47:54.932Z,100968.63
2023-03-11T05:50:22.204Z,100967.72
2023-03-11T05:52:50.722Z,100951.09
2023-03-11T05:55:18.732Z,100986.13
2023-03-11T05:57:46.853Z,100973.88
2023-03-11T06:00:14.409Z,100972.09
2023-03-11T06:02:43.297Z,100970.38
2023-03-11T06:05:14.362Z,100981.69
2023-03-11T06:07:43.695Z,100953.75
2023-03-11T06:10:11.467Z,100947.63
2023-03-11T06:12:39.496Z,100927.47
2023-03-11T06:15:30.031Z,100933.59
2023-03-11T06:17:59.120Z,100978.25
2023-03-11T06:20:26.837Z,100931.84
2023-03-11T06:23:03.392Z,100931.00
2023-03-11T06:25:30.834Z,100964.25
2023-03-11T06:27:58.317Z,100943.25
2023-03-11T06:30:26.038Z,100934.50
2023-03-11T06:33:03.736Z,100914.38
2023-03-11T06:35:34.055Z,100928.38
2023-03-11T06:38:04.405Z,100921.34
2023-03-11T06:40:34.860Z,100899.50
2023-03-11T06:43:04.702Z,100889.88
2023-03-11T06:48:20.108Z,100926.59
2023-03-11T06:51:07.308Z,100898.63
2023-03-11T06:53:44.565Z,100897.75
2023-03-11T06:56:14.319Z,100888.97
2023-03-11T06:58:59.302Z,100913.47
2023-03-11T07:01:35.899Z,100898.56
2023-03-11T07:04:15.874Z,100899.44
2023-03-11T07:06:44.252Z,100902.97
2023-03-11T07:09:25.643Z,100923.09
2023-03-11T07:14:45.176Z,100912.59
2023-03-11T07:17:18.447Z,100936.25
2023-03-11T07:19:56.392Z,100901.25
2023-03-11T07:22:31.113Z,100919.63
2023-03-11T07:25:02.025Z,100933.59
2023-03-11T07:27:30.328Z,100954.59
2023-03-11T07:29:57.926Z,100930.97
2023-03-11T07:32:30.721Z,100927.50
2023-03-11T07:35:04.616Z,100938.84
2023-03-11T07:37:55.973Z,100951.09
2023-03-11T07:40:25.055Z,100944.97
2023-03-11T07:42:59.782Z,100968.63
2023-03-11T07:45:46.032Z,100940.63
2023-03-11T07:48:27.459Z,100913.47
2023-03-11T07:51:22.415Z,100956.34
2023-03-11T07:53:52.930Z,100924.84
2023-03-11T07:56:23.940Z,100947.59
2023-03-11T07:58:54.877Z,100945.88
2023-03-11T08:01:41.696Z,100966.88
2023-03-11T08:04:17.990Z,100937.13
2023-03-11T08:06:49.024Z,100970.34
2023-03-11T08:09:16.330Z,100954.59
2023-03-11T08:11:49.213Z,100954.56
2023-03-11T08:14:16.746Z,100956.38
2023-03-11T08:16:44.008Z,100954.63
2023-03-11T08:19:14.910Z,100962.50
2023-03-11T08:21:45.126Z,100961.63
2023-03-11T08:24:13.996Z,100940.63
2023-03-11T08:26:41.568Z,100966.00
2023-03-11T08:29:08.870Z,100965.13
2023-03-11T08:31:36.490Z,100944.97
2023-03-11T08:34:13.747Z,100946.69
2023-03-11T08:36:51.841Z,100960.72
2023-03-11T08:39:25.815Z,100935.31
2023-03-11T08:42:00.003Z,100955.44
2023-03-11T08:44:34.458Z,100979.94
2023-03-11T08:47:11.749Z,100967.72
2023-03-11T08:49:42.325Z,100975.59
2023-03-11T08:52:20.354Z,100971.19
2023-03-11T08:54:55.901Z,100990.44
2023-03-11T08:57:31.638Z,101001.84
2023-03-11T09:00:01.124Z,101007.97
2023-03-11T09:02:39.306Z,101016.69
2023-03-11T09:05:16.912Z,101027.09
2023-03-11T09:07:55.800Z,101017.38
2023-03-11T09:10:29.381Z,100994.53
2023-03-11T09:13:06.385Z,101010.28
2023-03-11T09:15:48.459Z,101009.31
2023-03-11T09:18:19.602Z,101014.47
2023-03-11T09:21:03.946Z,100995.03
2023-03-11T09:23:37.580Z,100993.25
2023-03-11T09:26:11.043Z,100996.38
2023-03-11T09:28:43.648Z,101008.31
2023-03-11T09:31:21.559Z,101010.06
2023-03-11T09:33:53.057Z,101010.56
2023-03-11T09:36:21.684Z,100994.84
2023-03-11T09:38:49.294Z,101000.31
2023-03-11T09:41:57.088Z,101019.09
2023-03-11T09:44:49.604Z,100976.66
2023-03-11T09:47:45.505Z,101004.44
2023-03-11T09:50:26.978Z,100992.47
2023-03-11T09:53:02.943Z,101003.09
2023-03-11T09:55:37.650Z,100985.81
2023-03-11T09:58:50.812Z,100997.72
2023-03-11T10:01:56.331Z,100992.63
2023-03-11T10:04:42.390Z,100968.13
2023-03-11T10:07:23.201Z,100990.63
2023-03-11T10:10:15.585Z,100993.66
2023-03-11T10:13:15.406Z,100962.25
2023-03-11T10:16:17.046Z,100943.81
2023-03-11T10:19:27.798Z,100962.66
2023-03-11T10:22:13.946Z,100948.91
2023-03-11T10:25:10.507Z,100935.03
2023-03-11T10:30:52.717Z,100938.13
2023-03-11T10:33:52.563Z,100937.06
2023-03-11T10:36:48.908Z,100942.28
2023-03-11T10:39:35.605Z,100955.97
2023-03-11T10:42:11.054Z,100941.38
2023-03-11T10:44:41.348Z,100932.91
2023-03-11T10:47:22.785Z,100943.56
2023-03-11T10:49:57.135Z,100933.66
2023-03-11T10:52:26.508Z,100932.25
2023-03-11T10:55:06.539Z,100936.75
2023-03-11T10:57:40.004Z,100937.28
2023-03-11T11:00:17.835Z,100966.28
2023-03-11T11:02:54.162Z,100956.66
2023-03-11T11:05:35.801Z,100924.69
2023-03-11T11:08:18.730Z,100929.44
2023-03-11T11:11:48.644Z,100930.72
2023-03-11T11:14:18.358Z,100928.69
2023-03-11T11:17:00.319Z,100921.31
2023-03-11T11:19:34.877Z,100902.59
2023-03-11T11:24:56.364Z,100901.19
2023-03-11T11:27:31.992Z,100893.53
2023-03-11T11:30:20.699Z,100892.19
2023-03-11T11:33:02.515Z,100915.31
2023-03-11T11:35:41.503Z,100917.00
2023-03-11T11:38:14.829Z,100922.78
2023-03-11T11:40:51.475Z,100908.22
2023-03-11T11:43:47.661Z,100902.13
2023-03-11T11:46:29.833Z,100894.78
2023-03-11T11:49:08.070Z,100906.06
2023-03-11T11:51:43.144Z,100901.25
2023-03-11T11:54:46.093Z,100906.91
2023-03-11T11:57:21.136Z,100916.41
2023-03-11T12:00:13.082Z,100900.78
2023-03-11T12:03:25.640Z,100894.22
2023-03-11T12:06:10.460Z,100896.31
2023-03-11T12:08:53.261Z,100893.75
2023-03-11T12:11:54.698Z,100896.09
2023-03-11T12:14:49.441Z,100904.81
2023-03-11T12:17:21.771Z,100899.25
2023-03-11T12:20:05.865Z,100889.31
2023-03-11T12:23:17.131Z,100875.84
2023-03-11T12:26:05.852Z,100884.13
2023-03-11T12:29:31.755Z,100885.91
2023-03-11T12:32:48.409Z,100885.50
2023-03-11T12:35:29.704Z,100865.06
2023-03-11T12:38:18.125Z,100882.75
2023-03-11T12:41:37.325Z,100885.50
2023-03-11T12:44:49.781Z,100886.88
2023-03-11T12:47:37.221Z,100877.88
2023-03-11T12:50:46.064Z,100887.63
2023-03-11T12:53:41.602Z,100901.13
2023-03-11T12:56:41.313Z,100878.47
2023-03-11T12:59:49.046Z,100873.91
2023-03-11T13:02:41.109Z,100879.72
2023-03-11T13:05:41.712Z,100862.09
2023-03-11T13:08:37.384Z,100853.03
2023-03-11T13:11:42.609Z,100841.09
2023-03-11T13:14:52.681Z,100838.44
2023-03-11T13:17:38.613Z,100824.19
2023-03-11T13:20:42.861Z,100825.78
2023-03-11T13:23:19.663Z,100823.97
2023-03-11T13:26:32.245Z,100810.19
2023-03-11T13:29:40.030Z,100815.41
2023-03-11T13:32:43.184Z,100810.22
2023-03-11T13:35:42.693Z,100820.66
2023-03-11T13:38:40.213Z,100813.41
2023-03-11T13:41:22.529Z,100816.44
2023-03-11T13:43:53.751Z,100813.47
2023-03-11T13:46:55.654Z,100812.81
2023-03-11T13:49:31.665Z,100831.09
2023-03-11T13:52:34.258Z,100817.00
2023-03-11T13:55:25.921Z,100827.50
2023-03-11T13:58:02.829Z,100838.41
2023-03-11T14:00:36.586Z,100840.28
2023-03-11T14:03:21.925Z,100856.41
2023-03-11T14:06:22.378Z,100842.75
2023-03-11T14:09:05.681Z,100852.91
2023-03-11T14:11:37.824Z,100842.94
2023-03-11T14:14:40.486Z,100827.16
2023-03-11T14:17:20.786Z,100818.41
2023-03-11T14:20:07.622Z,100807.69
2023-03-11T14:22:44.972Z,100814.66
2023-03-11T14:25:45.517Z,100830.63
2023-03-11T14:28:44.113Z,100813.34
2023-03-11T14:31:57.506Z,100816.81
2023-03-11T14:34:59.409Z,100822.63
2023-03-11T14:37:44.253Z,100829.03
2023-03-11T14:40:33.017Z,100827.38
2023-03-11T14:43:47.921Z,100819.63
2023-03-11T14:46:35.721Z,100807.75
2023-03-11T14:49:11.884Z,100822.41
2023-03-11T14:51:46.385Z,100819.06
2023-03-11T14:54:28.107Z,100812.34
2023-03-11T14:57:18.160Z,100819.28
2023-03-11T14:59:53.040Z,100798.50
2023-03-11T15:02:34.392Z,100801.69
2023-03-11T15:05:08.443Z,100810.47
2023-03-11T15:07:47.686Z,100802.63
2023-03-11T15:10:25.281Z,100812.53
2023-03-11T15:13:14.328Z,100807.19
2023-03-11T15:18:44.808Z,100805.06
2023-03-11T15:21:34.372Z,100823.50
2023-03-11T15:24:10.485Z,100832.97
2023-03-11T15:26:45.599Z,100824.94
2023-03-11T15:29:19.704Z,100834.09
2023-03-11T15:31:48.846Z,100819.69
2023-03-11T15:34:25.690Z,100834.63
2023-03-11T15:36:53.248Z,100818.44
2023-03-11T15:39:25.519Z,100813.91
2023-03-11T15:42:06.901Z,100784.88
2023-03-11T15:44:49.087Z,100796.34
2023-03-11T15:47:31.358Z,100823.19
2023-03-11T15:49:58.678Z,100814.28
2023-03-11T15:52:31.788Z,100825.53
2023-03-11T15:54:59.168Z,100813.19
2023-03-11T15:57:32.715Z,100813.03
2023-03-11T16:00:04.594Z,100827.94
2023-03-11T16:02:37.052Z,100820.09
2023-03-11T16:05:17.325Z,100842.41
2023-03-11T16:07:56.648Z,100844.56
2023-03-11T16:10:34.235Z,100865.44
2023-03-11T16:13:23.121Z,100859.44
2023-03-11T16:15:53.434Z,100881.88
2023-03-11T16:18:25.687Z,100895.44
2023-03-11T16:21:09.940Z,100912.47
2023-03-11T16:23:51.029Z,100922.22
2023-03-11T16:26:33.034Z,100935.03
2023-03-11T16:29:18.981Z,100935.25
2023-03-11T16:31:51.973Z,100931.59
2023-03-11T16:34:21.573Z,100939.38
2023-03-11T16:36:48.970Z,100935.09
2023-03-11T16:39:31.444Z,100938.22
2023-03-11T16:42:02.812Z,100964.94
2023-03-11T16:44:37.912Z,100973.06
2023-03-11T16:47:10.702Z,100978.44
2023-03-11T16:49:41.130Z,100998.38
2023-03-11T16:52:08.943Z,101003.81
2023-03-11T16:54:39.625Z,100985.59
2023-03-11T16:57:10.002Z,100996.25
2023-03-11T16:59:37.141Z,101008.03
2023-03-11T17:02:07.569Z,101006.13
2023-03-11T17:04:35.627Z,101014.28
2023-03-11T17:07:03.328Z,101026.59
2023-03-11T17:09:33.783Z,101023.13
2023-03-11T17:12:16.908Z,101030.31
2023-03-11T17:14:46.816Z,101043.84
2023-03-11T17:17:15.028Z,101045.69
2023-03-11T17:19:47.582Z,101038.78
2023-03-11T17:22:32.746Z,101031.16
2023-03-11T17:25:00.298Z,101040.88
2023-03-11T17:27:33.297Z,101042.84
2023-03-11T17:30:14.943Z,101054.44
2023-03-11T17:32:47.872Z,101062.88
2023-03-11T17:35:18.617Z,101068.06
2023-03-11T17:37:51.899Z,101081.72
2023-03-11T17:40:27.226Z,101079.09
2023-03-11T17:43:04.243Z,101086.19
2023-03-11T17:45:39.346Z,101087.13
2023-03-11T17:48:09.817Z,101096.03
2023-03-11T17:50:41.220Z,101109.16
2023-03-11T17:53:13.385Z,101125.00
2023-03-11T17:55:42.359Z,101129.38
2023-03-11T17:58:09.873Z,101119.09
2023-03-11T18:00:43.042Z,101135.81
2023-03-11T18:03:10.182Z,101122.66
2023-03-11T18:05:41.895Z,101113.84
2023-03-11T18:08:09.632Z,101127.13
2023-03-11T18:10:37.044Z,101140.13
2023-03-11T18:13:09.350Z,101137.59
2023-03-11T18:15:36.567Z,101130.81
2023-03-11T18:18:03.731Z,101146.53
2023-03-11T18:20:30.884Z,101155.34
2023-03-11T18:22:57.950Z,101165.88
2023-03-11T18:25:25.191Z,101163.25
2023-03-11T18:27:57.750Z,101164.91
2023-03-11T18:30:25.832Z,101163.22
2023-03-11T18:32:53.075Z,101157.28
2023-03-11T18:35:24.396Z,101167.09
2023-03-11T18:37:53.133Z,101178.38
2023-03-11T18:40:24.016Z,101171.38
2023-03-11T18:42:54.666Z,101153.06
2023-03-11T18:45:22.360Z,101160.97
2023-03-11T18:47:51.979Z,101170.50
2023-03-11T18:50:20.471Z,101179.31
2023-03-11T18:52:50.515Z,101181.06
2023-03-11T18:55:18.848Z,101195.22
2023-03-11T18:57:47.193Z,101203.09
2023-03-11T19:00:16.989Z,101206.66
2023-03-11T19:02:44.319Z,101208.41
2023-03-11T19:05:16.247Z,101206.69
2023-03-11T19:07:46.552Z,101216.28
2023-03-11T19:10:15.609Z,101215.41
2023-03-11T19:12:45.219Z,101211.03
2023-03-11T19:15:13.207Z,101230.34
2023-03-11T19:17:41.105Z,101223.31
2023-03-11T19:20:11.384Z,101219.81
2023-03-11T19:22:49.491Z,101229.50
2023-03-11T19:25:16.840Z,101219.88
2023-03-11T19:27:48.906Z,101229.47
2023-03-11T19:30:27.597Z,101224.28
2023-03-11T19:33:02.793Z,101236.56
2023-03-11T19:35:34.161Z,101247.94
2023-03-11T19:38:10.389Z,101250.56
2023-03-11T19:40:40.658Z,101258.53
2023-03-11T19:43:07.875Z,101254.09
2023-03-11T19:45:40.050Z,101250.59
2023-03-11T19:48:07.604Z,101255.88
2023-03-11T19:50:40.155Z,101247.94
2023-03-11T19:53:13.420Z,101255.84
2023-03-11T19:55:47.990Z,101250.59
2023-03-11T19:58:15.245Z,101254.09
2023-03-11T20:00:43.950Z,101251.53
2023-03-11T20:03:13.089Z,101259.41
2023-03-11T20:05:48.458Z,101271.69
2023-03-11T20:08:35.905Z,101276.03
2023-03-11T20:11:06.460Z,101297.13
2023-03-11T20:13:42.721Z,101299.72
2023-03-11T20:16:18.863Z,101295.38
2023-03-11T20:18:55.244Z,101295.34
2023-03-11T20:21:33.877Z,101309.41
2023-03-11T20:24:03.654Z,101305.91
2023-03-11T20:26:38.345Z,101311.16
2023-03-11T20:29:17.240Z,101305.03
2023-03-11T20:31:51.093Z,101298.88
2023-03-11T20:34:22.308Z,101299.78
2023-03-11T20:36:52.780Z,101291.94
2023-03-11T20:39:32.492Z,101300.66
2023-03-11T20:42:11.537Z,101308.56
2023-03-11T20:44:44.892Z,101308.56
2023-03-11T20:47:16.449Z,101290.16
2023-03-11T20:49:46.418Z,101276.97
2023-03-11T20:52:27.262Z,101283.97
2023-03-11T20:54:57.389Z,101291.03
2023-03-11T20:57:31.927Z,101306.81
2023-03-11T21:00:14.368Z,101315.59
2023-03-11T21:02:56.066Z,101320.88
2023-03-11T21:05:36.729Z,101316.47
2023-03-11T21:08:11.166Z,101328.75
2023-03-11T21:10:46.143Z,101331.41
2023-03-11T21:13:20.652Z,101341.06
2023-03-11T21:16:09.851Z,101348.94
2023-03-11T21:18:50.728Z,101353.34
2023-03-11T21:21:27.238Z,101359.50
2023-03-11T21:23:54.533Z,101354.22
2023-03-11T21:29:06.919Z,101348.09
2023-03-11T21:31:39.847Z,101361.22
2023-03-11T21:34:07.242Z,101358.59
2023-03-11T21:36:38.246Z,101363.88
2023-03-11T21:39:25.378Z,101356.84
2023-03-11T21:42:16.581Z,101363.88
2023-03-11T21:44:51.734Z,101366.50
2023-03-11T21:47:26.993Z,101359.50
2023-03-11T21:49:56.850Z,101354.22
2023-03-11T21:52:34.844Z,101342.81
2023-03-11T21:55:07.133Z,101345.44
2023-03-11T21:57:52.519Z,101345.44
2023-03-11T22:00:25.177Z,101345.47
2023-03-11T22:02:52.395Z,101348.09
2023-03-11T22:05:19.611Z,101362.13
2023-03-11T22:07:46.723Z,101362.13
2023-03-11T22:10:14.072Z,101357.75
2023-03-11T22:12:41.229Z,101358.59
2023-03-11T22:15:09.268Z,101349.84
2023-03-11T22:17:37.136Z,101345.44
2023-03-11T22:20:06.203Z,101355.09
2023-03-11T22:22:37.252Z,101347.22
2023-03-11T22:25:05.465Z,101345.47
2023-03-11T22:27:32.935Z,101352.47
2023-03-11T22:30:00.404Z,101368.28
2023-03-11T22:32:27.758Z,101373.53
2023-03-11T22:34:54.848Z,101372.66
2023-03-11T22:37:22.053Z,101376.19
2023-03-11T22:39:49.147Z,101376.19
2023-03-11T22:42:17.389Z,101369.16
2023-03-11T22:44:44.422Z,101372.69
2023-03-11T22:47:11.752Z,101361.19
2023-03-11T22:49:39.077Z,101370.91
2023-03-11T22:52:08.599Z,101371.72
2023-03-11T22:54:37.675Z,101373.47
2023-03-11T22:57:04.816Z,101391.91
2023-03-11T22:59:32.116Z,101375.25
2023-03-11T23:01:59.393Z,101389.28
2023-03-11T23:04:26.682Z,101376.97
2023-03-11T23:06:55.597Z,101390.13
2023-03-11T23:09:23.142Z,101384.88
2023-03-11T23:11:52.294Z,101389.25
2023-03-11T23:14:23.722Z,101391.88
2023-03-11T23:16:55.171Z,101404.13
2023-03-11T23:19:22.411Z,101401.50
2023-03-11T23:21:49.552Z,101412.91
2023-03-11T23:24:16.619Z,101407.69
2023-03-11T23:26:43.703Z,101408.56
2023-03-11T23:29:10.751Z,101394.53
2023-03-11T23:31:38.210Z,101393.66
2023-03-11T23:34:06.838Z,101387.47
2023-03-11T23:36:34.200Z,101392.75
2023-03-11T23:39:01.370Z,101376.09
2023-03-11T23:41:29.441Z,101373.47
2023-03-11T23:43:56.889Z,101369.94
2023-03-11T23:46:24.121Z,101374.34
2023-03-11T23:48:51.397Z,101378.69
2023-03-11T23:51:18.682Z,101369.91
2023-03-11T23:53:46.140Z,101376.94
2023-03-11T23:56:17.066Z,101372.56
2023-03-11T23:58:44.562Z,101369.94
